sensor_id;sensor_type;location;lat;lon;timestamp;temperature;humidity
31074;DHT22;17730;53.552;9.940;2023-02-15T00:01:43;4.70;99.90
31074;DHT22;17730;53.552;9.940;2023-02-15T00:04:13;4.70;99.90
31074;DHT22;17730;53.552;9.940;2023-02-15T00:06:39;4.70;99.90
31074;DHT22;17730;53.552;9.940;2023-02-15T00:09:04;4.70;99.90
31074;DHT22;17730;53.552;9.940;2023-02-15T00:11:30;4.70;99.90
31074;DHT22;17730;53.552;9.940;2023-02-15T00:14:10;4.70;99.90
31074;DHT22;17730;53.552;9.940;2023-02-15T00:16:37;4.70;99.90
31074;DHT22;17730;53.552;9.940;2023-02-15T00:19:03;4.70;99.90
31074;DHT22;17730;53.552;9.940;2023-02-15T00:21:30;4.80;99.90
31074;DHT22;17730;53.552;9.940;2023-02-15T00:23:58;4.80;99.90
31074;DHT22;17730;53.552;9.940;2023-02-15T00:26:24;4.70;99.90
31074;DHT22;17730;53.552;9.940;2023-02-15T00:28:50;4.70;99.90
31074;DHT22;17730;53.552;9.940;2023-02-15T00:31:16;4.60;99.90
31074;DHT22;17730;53.552;9.940;2023-02-15T00:33:41;4.70;99.90
31074;DHT22;17730;53.552;9.940;2023-02-15T00:36:08;4.70;99.90
31074;DHT22;17730;53.552;9.940;2023-02-15T00:38:35;4.70;99.90
31074;DHT22;17730;53.552;9.940;2023-02-15T00:41:02;4.80;99.90
31074;DHT22;17730;53.552;9.940;2023-02-15T00:43:29;4.80;99.90
31074;DHT22;17730;53.552;9.940;2023-02-15T00:45:55;4.80;99.90
31074;DHT22;17730;53.552;9.940;2023-02-15T00:48:21;4.70;99.90
31074;DHT22;17730;53.552;9.940;2023-02-15T00:50:50;4.70;99.90
31074;DHT22;17730;53.552;9.940;2023-02-15T00:53:15;4.80;99.90
31074;DHT22;17730;53.552;9.940;2023-02-15T00:55:41;4.70;99.90
31074;DHT22;17730;53.552;9.940;2023-02-15T00:58:08;4.70;99.90
31074;DHT22;17730;53.552;9.940;2023-02-15T01:00:34;4.70;99.90
31074;DHT22;17730;53.552;9.940;2023-02-15T01:02:59;4.80;99.90
31074;DHT22;17730;53.552;9.940;2023-02-15T01:05:25;4.80;99.90
31074;DHT22;17730;53.552;9.940;2023-02-15T01:07:50;4.80;99.90
31074;DHT22;17730;53.552;9.940;2023-02-15T01:10:16;4.80;99.90
31074;DHT22;17730;53.552;9.940;2023-02-15T01:12:42;4.80;99.90
31074;DHT22;17730;53.552;9.940;2023-02-15T01:15:08;4.80;99.90
31074;DHT22;17730;53.552;9.940;2023-02-15T01:17:33;4.90;99.90
31074;DHT22;17730;53.552;9.940;2023-02-15T01:19:59;4.90;99.90
31074;DHT22;17730;53.552;9.940;2023-02-15T01:22:25;4.90;99.90
31074;DHT22;17730;53.552;9.940;2023-02-15T01:24:51;4.90;99.90
31074;DHT22;17730;53.552;9.940;2023-02-15T01:27:16;4.90;99.90
31074;DHT22;17730;53.552;9.940;2023-02-15T01:29:42;5.00;99.90
31074;DHT22;17730;53.552;9.940;2023-02-15T01:32:08;5.00;99.90
31074;DHT22;17730;53.552;9.940;2023-02-15T01:34:33;5.00;99.90
31074;DHT22;17730;53.552;9.940;2023-02-15T01:36:59;5.00;99.90
31074;DHT22;17730;53.552;9.940;2023-02-15T01:39:24;4.90;99.90
31074;DHT22;17730;53.552;9.940;2023-02-15T01:41:50;5.00;99.90
31074;DHT22;17730;53.552;9.940;2023-02-15T01:47:07;5.00;99.90
31074;DHT22;17730;53.552;9.940;2023-02-15T01:49:34;5.00;99.90
31074;DHT22;17730;53.552;9.940;2023-02-15T01:51:59;5.00;99.90
31074;DHT22;17730;53.552;9.940;2023-02-15T01:54:29;5.00;99.90
31074;DHT22;17730;53.552;9.940;2023-02-15T01:57:00;5.00;99.90
31074;DHT22;17730;53.552;9.940;2023-02-15T01:59:28;5.00;99.90
31074;DHT22;17730;53.552;9.940;2023-02-15T02:01:57;5.00;99.90
31074;DHT22;17730;53.552;9.940;2023-02-15T02:04:29;5.00;99.90
31074;DHT22;17730;53.552;9.940;2023-02-15T02:06:57;5.00;99.90
31074;DHT22;17730;53.552;9.940;2023-02-15T02:09:23;5.00;99.90
31074;DHT22;17730;53.552;9.940;2023-02-15T02:11:49;5.00;99.90
31074;DHT22;17730;53.552;9.940;2023-02-15T02:14:16;5.00;99.90
31074;DHT22;17730;53.552;9.940;2023-02-15T02:20:02;5.10;99.90
31074;DHT22;17730;53.552;9.940;2023-02-15T02:30:37;5.00;99.90
31074;DHT22;17730;53.552;9.940;2023-02-15T02:41:39;5.00;99.90
31074;DHT22;17730;53.552;9.940;2023-02-15T02:44:31;5.00;99.90
31074;DHT22;17730;53.552;9.940;2023-02-15T02:47:02;5.00;99.90
31074;DHT22;17730;53.552;9.940;2023-02-15T02:49:41;5.10;99.90
31074;DHT22;17730;53.552;9.940;2023-02-15T02:52:43;5.00;99.90
31074;DHT22;17730;53.552;9.940;2023-02-15T02:58:14;5.00;99.90
31074;DHT22;17730;53.552;9.940;2023-02-15T03:00:48;5.00;99.90
31074;DHT22;17730;53.552;9.940;2023-02-15T03:03:26;5.00;99.90
31074;DHT22;17730;53.552;9.940;2023-02-15T03:05:57;5.00;99.90
31074;DHT22;17730;53.552;9.940;2023-02-15T03:08:26;5.00;99.90
31074;DHT22;17730;53.552;9.940;2023-02-15T03:10:54;5.00;99.90
31074;DHT22;17730;53.552;9.940;2023-02-15T03:13:22;5.00;99.90
31074;DHT22;17730;53.552;9.940;2023-02-15T03:15:48;5.00;99.90
31074;DHT22;17730;53.552;9.940;2023-02-15T03:19:07;5.00;99.90
31074;DHT22;17730;53.552;9.940;2023-02-15T03:24:09;5.00;99.90
31074;DHT22;17730;53.552;9.940;2023-02-15T03:26:36;5.00;99.90
31074;DHT22;17730;53.552;9.940;2023-02-15T03:29:04;4.90;99.90
31074;DHT22;17730;53.552;9.940;2023-02-15T03:31:33;4.90;99.90
31074;DHT22;17730;53.552;9.940;2023-02-15T03:34:08;4.90;99.90
31074;DHT22;17730;53.552;9.940;2023-02-15T03:36:52;5.00;99.90
31074;DHT22;17730;53.552;9.940;2023-02-15T03:39:33;5.00;99.90
31074;DHT22;17730;53.552;9.940;2023-02-15T03:42:13;5.00;99.90
31074;DHT22;17730;53.552;9.940;2023-02-15T03:44:55;4.90;99.90
31074;DHT22;17730;53.552;9.940;2023-02-15T03:47:27;4.90;99.90
31074;DHT22;17730;53.552;9.940;2023-02-15T03:50:04;4.90;99.90
31074;DHT22;17730;53.552;9.940;2023-02-15T03:52:52;4.90;99.90
31074;DHT22;17730;53.552;9.940;2023-02-15T03:55:18;4.90;99.90
31074;DHT22;17730;53.552;9.940;2023-02-15T03:57:44;4.90;99.90
31074;DHT22;17730;53.552;9.940;2023-02-15T04:00:28;4.80;99.90
31074;DHT22;17730;53.552;9.940;2023-02-15T04:05:41;4.90;99.90
31074;DHT22;17730;53.552;9.940;2023-02-15T04:08:07;4.90;99.90
31074;DHT22;17730;53.552;9.940;2023-02-15T04:10:32;4.90;99.90
31074;DHT22;17730;53.552;9.940;2023-02-15T04:13:17;4.90;99.90
31074;DHT22;17730;53.552;9.940;2023-02-15T04:15:43;4.90;99.90
31074;DHT22;17730;53.552;9.940;2023-02-15T04:18:26;4.80;99.90
31074;DHT22;17730;53.552;9.940;2023-02-15T04:21:11;4.80;99.90
31074;DHT22;17730;53.552;9.940;2023-02-15T04:23:55;4.70;99.90
31074;DHT22;17730;53.552;9.940;2023-02-15T04:26:39;4.70;99.90
31074;DHT22;17730;53.552;9.940;2023-02-15T04:29:04;4.60;99.90
31074;DHT22;17730;53.552;9.940;2023-02-15T04:31:30;4.60;99.90
31074;DHT22;17730;53.552;9.940;2023-02-15T04:33:55;4.60;99.90
31074;DHT22;17730;53.552;9.940;2023-02-15T04:36:21;4.60;99.90
31074;DHT22;17730;53.552;9.940;2023-02-15T04:38:46;4.60;99.90
31074;DHT22;17730;53.552;9.940;2023-02-15T04:41:12;4.70;99.90
31074;DHT22;17730;53.552;9.940;2023-02-15T04:43:38;4.70;99.90
31074;DHT22;17730;53.552;9.940;2023-02-15T04:46:04;4.70;99.90
31074;DHT22;17730;53.552;9.940;2023-02-15T04:48:30;4.60;99.90
31074;DHT22;17730;53.552;9.940;2023-02-15T04:50:55;4.60;99.90
31074;DHT22;17730;53.552;9.940;2023-02-15T04:53:21;4.60;99.90
31074;DHT22;17730;53.552;9.940;2023-02-15T04:55:47;4.60;99.90
31074;DHT22;17730;53.552;9.940;2023-02-15T04:58:12;4.60;99.90
31074;DHT22;17730;53.552;9.940;2023-02-15T05:00:38;4.60;99.90
31074;DHT22;17730;53.552;9.940;2023-02-15T05:03:03;4.60;99.90
31074;DHT22;17730;53.552;9.940;2023-02-15T05:05:29;4.50;99.90
31074;DHT22;17730;53.552;9.940;2023-02-15T05:07:54;4.50;99.90
31074;DHT22;17730;53.552;9.940;2023-02-15T05:10:20;4.50;99.90
31074;DHT22;17730;53.552;9.940;2023-02-15T05:12:46;4.50;99.90
31074;DHT22;17730;53.552;9.940;2023-02-15T05:15:11;4.60;99.90
31074;DHT22;17730;53.552;9.940;2023-02-15T05:17:37;4.60;99.90
31074;DHT22;17730;53.552;9.940;2023-02-15T05:20:03;4.60;99.90
31074;DHT22;17730;53.552;9.940;2023-02-15T05:22:29;4.60;99.90
31074;DHT22;17730;53.552;9.940;2023-02-15T05:24:55;4.60;99.90
31074;DHT22;17730;53.552;9.940;2023-02-15T05:27:39;4.60;99.90
31074;DHT22;17730;53.552;9.940;2023-02-15T05:30:23;4.50;99.90
31074;DHT22;17730;53.552;9.940;2023-02-15T05:32:48;4.50;99.90
31074;DHT22;17730;53.552;9.940;2023-02-15T05:35:15;4.40;99.90
31074;DHT22;17730;53.552;9.940;2023-02-15T05:37:41;4.40;99.90
31074;DHT22;17730;53.552;9.940;2023-02-15T05:40:07;4.40;99.90
31074;DHT22;17730;53.552;9.940;2023-02-15T05:42:33;4.40;99.90
31074;DHT22;17730;53.552;9.940;2023-02-15T05:44:58;4.40;99.90
31074;DHT22;17730;53.552;9.940;2023-02-15T05:47:24;4.40;99.90
31074;DHT22;17730;53.552;9.940;2023-02-15T05:49:49;4.40;99.90
31074;DHT22;17730;53.552;9.940;2023-02-15T05:52:15;4.30;99.90
31074;DHT22;17730;53.552;9.940;2023-02-15T05:54:40;4.30;99.90
31074;DHT22;17730;53.552;9.940;2023-02-15T05:57:06;4.20;99.90
31074;DHT22;17730;53.552;9.940;2023-02-15T05:59:31;4.20;99.90
31074;DHT22;17730;53.552;9.940;2023-02-15T06:01:57;4.20;99.90
31074;DHT22;17730;53.552;9.940;2023-02-15T06:04:23;4.10;99.90
31074;DHT22;17730;53.552;9.940;2023-02-15T06:06:48;4.10;99.90
31074;DHT22;17730;53.552;9.940;2023-02-15T06:09:14;4.10;99.90
31074;DHT22;17730;53.552;9.940;2023-02-15T06:11:40;4.10;99.90
31074;DHT22;17730;53.552;9.940;2023-02-15T06:14:05;4.10;99.90
31074;DHT22;17730;53.552;9.940;2023-02-15T06:16:31;4.10;99.90
31074;DHT22;17730;53.552;9.940;2023-02-15T06:18:57;4.10;99.90
31074;DHT22;17730;53.552;9.940;2023-02-15T06:21:24;4.10;99.90
31074;DHT22;17730;53.552;9.940;2023-02-15T06:23:49;4.10;99.90
31074;DHT22;17730;53.552;9.940;2023-02-15T06:26:15;4.10;99.90
31074;DHT22;17730;53.552;9.940;2023-02-15T06:28:40;4.00;99.90
31074;DHT22;17730;53.552;9.940;2023-02-15T06:31:06;4.00;99.90
31074;DHT22;17730;53.552;9.940;2023-02-15T06:33:32;4.10;99.90
31074;DHT22;17730;53.552;9.940;2023-02-15T06:35:59;4.10;99.90
31074;DHT22;17730;53.552;9.940;2023-02-15T06:38:25;4.10;99.90
31074;DHT22;17730;53.552;9.940;2023-02-15T06:40:50;4.10;99.90
31074;DHT22;17730;53.552;9.940;2023-02-15T06:43:16;4.10;99.90
31074;DHT22;17730;53.552;9.940;2023-02-15T06:45:41;4.10;99.90
31074;DHT22;17730;53.552;9.940;2023-02-15T06:48:07;4.20;99.90
31074;DHT22;17730;53.552;9.940;2023-02-15T06:50:34;4.20;99.90
31074;DHT22;17730;53.552;9.940;2023-02-15T06:52:59;4.20;99.90
31074;DHT22;17730;53.552;9.940;2023-02-15T06:55:25;4.20;99.90
31074;DHT22;17730;53.552;9.940;2023-02-15T06:57:51;4.20;99.90
31074;DHT22;17730;53.552;9.940;2023-02-15T07:00:17;4.20;99.90
31074;DHT22;17730;53.552;9.940;2023-02-15T07:02:43;4.30;99.90
31074;DHT22;17730;53.552;9.940;2023-02-15T07:05:09;4.30;99.90
31074;DHT22;17730;53.552;9.940;2023-02-15T07:07:34;4.30;99.90
31074;DHT22;17730;53.552;9.940;2023-02-15T07:10:00;4.30;99.90
31074;DHT22;17730;53.552;9.940;2023-02-15T07:12:26;4.30;99.90
31074;DHT22;17730;53.552;9.940;2023-02-15T07:15:10;4.30;99.90
31074;DHT22;17730;53.552;9.940;2023-02-15T07:17:37;4.30;99.90
31074;DHT22;17730;53.552;9.940;2023-02-15T07:20:07;4.30;99.90
31074;DHT22;17730;53.552;9.940;2023-02-15T07:22:33;4.30;99.90
31074;DHT22;17730;53.552;9.940;2023-02-15T07:25:02;4.30;99.90
31074;DHT22;17730;53.552;9.940;2023-02-15T07:27:27;4.30;99.90
31074;DHT22;17730;53.552;9.940;2023-02-15T07:29:53;4.30;99.90
31074;DHT22;17730;53.552;9.940;2023-02-15T07:32:19;4.30;99.90
31074;DHT22;17730;53.552;9.940;2023-02-15T07:34:44;4.30;99.90
31074;DHT22;17730;53.552;9.940;2023-02-15T07:37:10;4.40;99.90
31074;DHT22;17730;53.552;9.940;2023-02-15T07:39:35;4.30;99.90
31074;DHT22;17730;53.552;9.940;2023-02-15T07:42:01;4.40;99.90
31074;DHT22;17730;53.552;9.940;2023-02-15T07:44:26;4.50;99.90
31074;DHT22;17730;53.552;9.940;2023-02-15T07:46:52;4.50;99.90
31074;DHT22;17730;53.552;9.940;2023-02-15T07:49:17;4.50;99.90
31074;DHT22;17730;53.552;9.940;2023-02-15T07:51:43;4.60;99.90
31074;DHT22;17730;53.552;9.940;2023-02-15T07:54:08;4.60;99.90
31074;DHT22;17730;53.552;9.940;2023-02-15T07:56:34;4.50;99.90
31074;DHT22;17730;53.552;9.940;2023-02-15T07:59:00;4.50;99.90
31074;DHT22;17730;53.552;9.940;2023-02-15T08:01:31;4.50;99.90
31074;DHT22;17730;53.552;9.940;2023-02-15T08:03:57;4.50;99.90
31074;DHT22;17730;53.552;9.940;2023-02-15T08:06:26;4.50;99.90
31074;DHT22;17730;53.552;9.940;2023-02-15T08:08:52;4.40;99.90
31074;DHT22;17730;53.552;9.940;2023-02-15T08:11:21;4.50;99.90
31074;DHT22;17730;53.552;9.940;2023-02-15T08:14:16;4.50;99.90
31074;DHT22;17730;53.552;9.940;2023-02-15T08:19:18;4.50;99.90
31074;DHT22;17730;53.552;9.940;2023-02-15T08:21:50;4.50;99.90
31074;DHT22;17730;53.552;9.940;2023-02-15T08:24:18;4.50;99.90
31074;DHT22;17730;53.552;9.940;2023-02-15T08:26:45;4.50;99.90
31074;DHT22;17730;53.552;9.940;2023-02-15T08:29:16;4.50;99.90
31074;DHT22;17730;53.552;9.940;2023-02-15T08:31:43;4.40;99.90
31074;DHT22;17730;53.552;9.940;2023-02-15T08:34:10;4.40;99.90
31074;DHT22;17730;53.552;9.940;2023-02-15T08:36:37;4.30;99.90
31074;DHT22;17730;53.552;9.940;2023-02-15T08:39:04;4.40;99.90
31074;DHT22;17730;53.552;9.940;2023-02-15T08:41:35;4.40;99.90
31074;DHT22;17730;53.552;9.940;2023-02-15T08:44:03;4.20;99.90
31074;DHT22;17730;53.552;9.940;2023-02-15T08:46:32;4.30;99.90
31074;DHT22;17730;53.552;9.940;2023-02-15T08:48:58;4.30;99.90
31074;DHT22;17730;53.552;9.940;2023-02-15T08:51:25;4.50;99.90
31074;DHT22;17730;53.552;9.940;2023-02-15T08:53:56;4.50;99.90
31074;DHT22;17730;53.552;9.940;2023-02-15T08:56:25;4.60;99.90
31074;DHT22;17730;53.552;9.940;2023-02-15T08:58:52;4.50;99.90
31074;DHT22;17730;53.552;9.940;2023-02-15T09:01:21;4.60;99.90
31074;DHT22;17730;53.552;9.940;2023-02-15T09:03:49;4.60;99.90
31074;DHT22;17730;53.552;9.940;2023-02-15T09:06:16;4.70;99.90
31074;DHT22;17730;53.552;9.940;2023-02-15T09:08:42;4.80;99.90
31074;DHT22;17730;53.552;9.940;2023-02-15T09:11:28;4.90;99.90
31074;DHT22;17730;53.552;9.940;2023-02-15T09:13:55;5.00;99.90
31074;DHT22;17730;53.552;9.940;2023-02-15T09:16:22;5.10;99.90
31074;DHT22;17730;53.552;9.940;2023-02-15T09:18:49;5.10;99.90
31074;DHT22;17730;53.552;9.940;2023-02-15T09:21:17;5.30;99.90
31074;DHT22;17730;53.552;9.940;2023-02-15T09:23:45;5.40;99.90
31074;DHT22;17730;53.552;9.940;2023-02-15T09:26:13;5.40;99.90
31074;DHT22;17730;53.552;9.940;2023-02-15T09:28:39;5.50;99.90
31074;DHT22;17730;53.552;9.940;2023-02-15T09:31:11;5.50;99.90
31074;DHT22;17730;53.552;9.940;2023-02-15T09:33:38;5.50;99.90
31074;DHT22;17730;53.552;9.940;2023-02-15T09:36:05;5.50;99.90
31074;DHT22;17730;53.552;9.940;2023-02-15T09:38:31;5.50;99.90
31074;DHT22;17730;53.552;9.940;2023-02-15T09:49:36;5.40;99.90
31074;DHT22;17730;53.552;9.940;2023-02-15T10:01:03;5.80;99.90
31074;DHT22;17730;53.552;9.940;2023-02-15T10:06:23;6.00;99.90
31074;DHT22;17730;53.552;9.940;2023-02-15T10:09:09;6.10;99.90
31074;DHT22;17730;53.552;9.940;2023-02-15T10:20:45;6.20;99.90
31074;DHT22;17730;53.552;9.940;2023-02-15T10:31:23;6.30;99.90
31074;DHT22;17730;53.552;9.940;2023-02-15T10:34:16;6.20;99.90
31074;DHT22;17730;53.552;9.940;2023-02-15T10:39:33;6.30;99.90
31074;DHT22;17730;53.552;9.940;2023-02-15T10:42:05;6.60;99.90
31074;DHT22;17730;53.552;9.940;2023-02-15T10:45:06;6.70;99.90
31074;DHT22;17730;53.552;9.940;2023-02-15T10:48:10;7.00;99.90
31074;DHT22;17730;53.552;9.940;2023-02-15T10:58:54;7.30;99.90
31074;DHT22;17730;53.552;9.940;2023-02-15T11:07:33;7.50;99.90
31074;DHT22;17730;53.552;9.940;2023-02-15T11:10:22;7.60;99.90
31074;DHT22;17730;53.552;9.940;2023-02-15T11:12:52;7.60;99.90
31074;DHT22;17730;53.552;9.940;2023-02-15T11:15:29;7.60;99.90
31074;DHT22;17730;53.552;9.940;2023-02-15T11:18:01;7.50;99.90
31074;DHT22;17730;53.552;9.940;2023-02-15T11:20:35;7.50;99.90
31074;DHT22;17730;53.552;9.940;2023-02-15T11:23:02;7.50;99.90
31074;DHT22;17730;53.552;9.940;2023-02-15T11:25:31;7.50;99.90
31074;DHT22;17730;53.552;9.940;2023-02-15T11:27:57;7.60;99.90
31074;DHT22;17730;53.552;9.940;2023-02-15T11:30:51;7.80;99.90
31074;DHT22;17730;53.552;9.940;2023-02-15T11:33:23;7.80;99.90
31074;DHT22;17730;53.552;9.940;2023-02-15T11:35:59;7.90;99.90
31074;DHT22;17730;53.552;9.940;2023-02-15T11:38:27;8.10;99.90
31074;DHT22;17730;53.552;9.940;2023-02-15T11:43:35;8.40;99.90
31074;DHT22;17730;53.552;9.940;2023-02-15T11:46:03;8.50;99.90
31074;DHT22;17730;53.552;9.940;2023-02-15T11:48:31;8.60;1.00
31074;DHT22;17730;53.552;9.940;2023-02-15T11:50:57;8.80;1.00
31074;DHT22;17730;53.552;9.940;2023-02-15T11:53:23;8.90;99.90
31074;DHT22;17730;53.552;9.940;2023-02-15T11:55:53;8.90;99.90
31074;DHT22;17730;53.552;9.940;2023-02-15T12:03:44;9.30;99.90
31074;DHT22;17730;53.552;9.940;2023-02-15T12:06:24;9.40;99.90
31074;DHT22;17730;53.552;9.940;2023-02-15T12:09:07;9.60;99.90
31074;DHT22;17730;53.552;9.940;2023-02-15T12:11:40;9.00;99.90
31074;DHT22;17730;53.552;9.940;2023-02-15T12:14:10;8.40;99.90
31074;DHT22;17730;53.552;9.940;2023-02-15T12:16:42;8.50;1.00
31074;DHT22;17730;53.552;9.940;2023-02-15T12:19:31;8.90;1.00
31074;DHT22;17730;53.552;9.940;2023-02-15T12:22:00;9.30;99.90
31074;DHT22;17730;53.552;9.940;2023-02-15T12:24:34;9.60;99.90
31074;DHT22;17730;53.552;9.940;2023-02-15T12:27:23;9.90;99.90
31074;DHT22;17730;53.552;9.940;2023-02-15T12:29:59;10.20;99.90
31074;DHT22;17730;53.552;9.940;2023-02-15T12:32:31;10.40;99.90
31074;DHT22;17730;53.552;9.940;2023-02-15T12:35:15;10.50;99.90
31074;DHT22;17730;53.552;9.940;2023-02-15T12:37:53;10.50;99.90
31074;DHT22;17730;53.552;9.940;2023-02-15T12:40:23;10.50;99.90
31074;DHT22;17730;53.552;9.940;2023-02-15T12:42:51;10.60;99.90
31074;DHT22;17730;53.552;9.940;2023-02-15T12:45:31;10.60;99.90
31074;DHT22;17730;53.552;9.940;2023-02-15T12:50:38;10.60;99.90
31074;DHT22;17730;53.552;9.940;2023-02-15T12:55:50;10.80;99.90
31074;DHT22;17730;53.552;9.940;2023-02-15T12:58:18;10.80;99.90
31074;DHT22;17730;53.552;9.940;2023-02-15T13:00:45;10.80;99.90
31074;DHT22;17730;53.552;9.940;2023-02-15T13:03:22;10.70;99.90
31074;DHT22;17730;53.552;9.940;2023-02-15T13:05:54;10.60;99.90
31074;DHT22;17730;53.552;9.940;2023-02-15T13:08:26;10.40;99.90
31074;DHT22;17730;53.552;9.940;2023-02-15T13:10:56;10.50;99.90
31074;DHT22;17730;53.552;9.940;2023-02-15T13:13:26;10.80;99.90
31074;DHT22;17730;53.552;9.940;2023-02-15T13:16:15;11.10;99.90
31074;DHT22;17730;53.552;9.940;2023-02-15T13:18:44;11.10;99.90
31074;DHT22;17730;53.552;9.940;2023-02-15T13:21:16;11.20;99.90
31074;DHT22;17730;53.552;9.940;2023-02-15T13:24:06;11.30;99.90
31074;DHT22;17730;53.552;9.940;2023-02-15T13:26:34;11.50;99.90
31074;DHT22;17730;53.552;9.940;2023-02-15T13:29:06;11.60;99.90
31074;DHT22;17730;53.552;9.940;2023-02-15T13:31:34;11.60;99.90
31074;DHT22;17730;53.552;9.940;2023-02-15T13:34:10;11.60;99.90
31074;DHT22;17730;53.552;9.940;2023-02-15T13:36:42;11.60;99.90
31074;DHT22;17730;53.552;9.940;2023-02-15T13:51:42;10.60;99.90
31074;DHT22;17730;53.552;9.940;2023-02-15T13:54:31;10.60;99.90
31074;DHT22;17730;53.552;9.940;2023-02-15T14:10:53;10.00;99.90
31074;DHT22;17730;53.552;9.940;2023-02-15T14:13:49;10.10;99.90
31074;DHT22;17730;53.552;9.940;2023-02-15T14:19:32;10.40;99.90
31074;DHT22;17730;53.552;9.940;2023-02-15T14:24:46;10.70;99.90
31074;DHT22;17730;53.552;9.940;2023-02-15T14:27:27;10.70;99.90
31074;DHT22;17730;53.552;9.940;2023-02-15T14:30:23;10.80;99.90
31074;DHT22;17730;53.552;9.940;2023-02-15T14:32:59;10.80;99.90
31074;DHT22;17730;53.552;9.940;2023-02-15T14:35:29;10.80;99.90
31074;DHT22;17730;53.552;9.940;2023-02-15T14:38:13;10.60;99.90
31074;DHT22;17730;53.552;9.940;2023-02-15T14:40:51;10.40;99.90
31074;DHT22;17730;53.552;9.940;2023-02-15T14:49:17;10.20;99.90
31074;DHT22;17730;53.552;9.940;2023-02-15T14:59:42;10.00;99.90
31074;DHT22;17730;53.552;9.940;2023-02-15T15:10:34;9.80;99.90
31074;DHT22;17730;53.552;9.940;2023-02-15T15:12:53;9.80;99.90
31074;DHT22;17730;53.552;9.940;2023-02-15T15:18:05;9.70;99.90
31074;DHT22;17730;53.552;9.940;2023-02-15T15:20:42;9.60;1.00
31074;DHT22;17730;53.552;9.940;2023-02-15T15:25:46;9.60;1.00
31074;DHT22;17730;53.552;9.940;2023-02-15T15:33:57;9.40;1.00
31074;DHT22;17730;53.552;9.940;2023-02-15T15:36:31;9.40;1.00
31074;DHT22;17730;53.552;9.940;2023-02-15T15:39:27;9.20;1.00
31074;DHT22;17730;53.552;9.940;2023-02-15T15:42:25;9.10;1.00
31074;DHT22;17730;53.552;9.940;2023-02-15T15:48:31;8.90;1.00
31074;DHT22;17730;53.552;9.940;2023-02-15T15:51:02;8.70;1.00
31074;DHT22;17730;53.552;9.940;2023-02-15T15:53:31;8.60;1.00
31074;DHT22;17730;53.552;9.940;2023-02-15T15:56:03;8.60;1.00
31074;DHT22;17730;53.552;9.940;2023-02-15T15:58:31;8.50;1.00
31074;DHT22;17730;53.552;9.940;2023-02-15T16:01:04;8.40;1.00
31074;DHT22;17730;53.552;9.940;2023-02-15T16:03:32;8.30;1.00
31074;DHT22;17730;53.552;9.940;2023-02-15T16:05:58;8.20;1.00
31074;DHT22;17730;53.552;9.940;2023-02-15T16:08:45;8.10;1.00
31074;DHT22;17730;53.552;9.940;2023-02-15T16:11:24;8.00;1.00
31074;DHT22;17730;53.552;9.940;2023-02-15T16:13:50;7.90;2.60
31074;DHT22;17730;53.552;9.940;2023-02-15T16:16:25;7.80;7.20
31074;DHT22;17730;53.552;9.940;2023-02-15T16:18:54;7.70;12.40
31074;DHT22;17730;53.552;9.940;2023-02-15T16:21:25;7.60;18.90
31074;DHT22;17730;53.552;9.940;2023-02-15T16:24:24;7.60;22.00
31074;DHT22;17730;53.552;9.940;2023-02-15T16:29:35;7.40;28.50
31074;DHT22;17730;53.552;9.940;2023-02-15T16:32:22;7.30;34.40
31074;DHT22;17730;53.552;9.940;2023-02-15T16:34:59;7.20;36.90
31074;DHT22;17730;53.552;9.940;2023-02-15T16:37:27;7.20;38.20
31074;DHT22;17730;53.552;9.940;2023-02-15T16:39:56;7.10;40.20
31074;DHT22;17730;53.552;9.940;2023-02-15T16:42:22;7.00;45.00
31074;DHT22;17730;53.552;9.940;2023-02-15T16:44:53;7.00;51.90
31074;DHT22;17730;53.552;9.940;2023-02-15T16:47:24;7.00;54.00
31074;DHT22;17730;53.552;9.940;2023-02-15T16:49:53;6.90;57.50
31074;DHT22;17730;53.552;9.940;2023-02-15T16:52:22;6.90;59.90
31074;DHT22;17730;53.552;9.940;2023-02-15T16:54:50;6.80;64.00
31074;DHT22;17730;53.552;9.940;2023-02-15T16:57:21;6.80;64.50
31074;DHT22;17730;53.552;9.940;2023-02-15T16:59:48;6.70;67.40
31074;DHT22;17730;53.552;9.940;2023-02-15T17:02:24;6.60;70.80
31074;DHT22;17730;53.552;9.940;2023-02-15T17:05:07;6.60;78.50
31074;DHT22;17730;53.552;9.940;2023-02-15T17:07:33;6.50;75.10
31074;DHT22;17730;53.552;9.940;2023-02-15T17:10:15;6.50;78.00
31074;DHT22;17730;53.552;9.940;2023-02-15T17:12:52;6.40;79.60
31074;DHT22;17730;53.552;9.940;2023-02-15T17:15:30;6.40;90.10
31074;DHT22;17730;53.552;9.940;2023-02-15T17:17:57;6.30;85.80
31074;DHT22;17730;53.552;9.940;2023-02-15T17:20:23;6.30;92.90
31074;DHT22;17730;53.552;9.940;2023-02-15T17:22:49;6.20;92.30
31074;DHT22;17730;53.552;9.940;2023-02-15T17:25:23;6.20;92.80
31074;DHT22;17730;53.552;9.940;2023-02-15T17:27:53;6.10;92.80
31074;DHT22;17730;53.552;9.940;2023-02-15T17:30:27;6.10;95.50
31074;DHT22;17730;53.552;9.940;2023-02-15T17:32:54;6.00;98.00
31074;DHT22;17730;53.552;9.940;2023-02-15T17:35:24;5.90;98.00
31074;DHT22;17730;53.552;9.940;2023-02-15T17:37:54;5.90;99.90
31074;DHT22;17730;53.552;9.940;2023-02-15T17:40:26;5.80;99.90
31074;DHT22;17730;53.552;9.940;2023-02-15T17:42:52;5.80;99.90
31074;DHT22;17730;53.552;9.940;2023-02-15T17:45:18;5.90;99.90
31074;DHT22;17730;53.552;9.940;2023-02-15T17:47:44;5.80;99.90
31074;DHT22;17730;53.552;9.940;2023-02-15T17:50:19;5.80;99.90
31074;DHT22;17730;53.552;9.940;2023-02-15T17:52:45;5.80;99.90
31074;DHT22;17730;53.552;9.940;2023-02-15T17:55:12;5.80;99.90
31074;DHT22;17730;53.552;9.940;2023-02-15T17:57:57;5.70;99.90
31074;DHT22;17730;53.552;9.940;2023-02-15T18:00:22;5.70;99.90
31074;DHT22;17730;53.552;9.940;2023-02-15T18:03:08;5.60;99.90
31074;DHT22;17730;53.552;9.940;2023-02-15T18:05:53;5.50;99.90
31074;DHT22;17730;53.552;9.940;2023-02-15T18:08:37;5.50;99.90
31074;DHT22;17730;53.552;9.940;2023-02-15T18:11:22;5.50;99.90
31074;DHT22;17730;53.552;9.940;2023-02-15T18:14:04;5.50;99.90
31074;DHT22;17730;53.552;9.940;2023-02-15T18:16:30;5.40;99.90
31074;DHT22;17730;53.552;9.940;2023-02-15T18:18:57;5.40;99.90
31074;DHT22;17730;53.552;9.940;2023-02-15T18:21:23;5.50;99.90
31074;DHT22;17730;53.552;9.940;2023-02-15T18:23:49;5.40;99.90
31074;DHT22;17730;53.552;9.940;2023-02-15T18:26:18;5.40;99.90
31074;DHT22;17730;53.552;9.940;2023-02-15T18:28:44;5.30;99.90
31074;DHT22;17730;53.552;9.940;2023-02-15T18:31:09;5.30;99.90
31074;DHT22;17730;53.552;9.940;2023-02-15T18:36:02;5.30;99.90
31074;DHT22;17730;53.552;9.940;2023-02-15T18:38:28;5.20;99.90
31074;DHT22;17730;53.552;9.940;2023-02-15T18:40:54;5.10;99.90
31074;DHT22;17730;53.552;9.940;2023-02-15T18:43:19;5.10;99.90
31074;DHT22;17730;53.552;9.940;2023-02-15T18:45:45;5.10;99.90
31074;DHT22;17730;53.552;9.940;2023-02-15T18:48:10;5.10;99.90
31074;DHT22;17730;53.552;9.940;2023-02-15T18:50:37;5.00;99.90
31074;DHT22;17730;53.552;9.940;2023-02-15T18:53:03;5.00;99.90
31074;DHT22;17730;53.552;9.940;2023-02-15T18:55:30;5.00;99.90
31074;DHT22;17730;53.552;9.940;2023-02-15T18:57:59;5.00;99.90
31074;DHT22;17730;53.552;9.940;2023-02-15T19:00:29;4.90;99.90
31074;DHT22;17730;53.552;9.940;2023-02-15T19:02:56;5.00;99.90